createdAt,value
2023-02-19T00:00:54.716Z,93.80
2023-02-19T00:03:23.124Z,93.70
2023-02-19T00:05:53.531Z,92.70
2023-02-19T00:08:21.314Z,91.80
2023-02-19T00:10:48.875Z,91.00
2023-02-19T00:13:19.587Z,90.80
2023-02-19T00:15:47.308Z,90.70
2023-02-19T00:18:14.897Z,90.10
2023-02-19T00:20:44.616Z,89.60
2023-02-19T00:23:12.451Z,89.70
2023-02-19T00:25:40.021Z,89.90
2023-02-19T00:28:09.700Z,89.90
2023-02-19T00:30:38.028Z,90.00
2023-02-19T00:33:05.614Z,89.30
2023-02-19T00:35:35.327Z,89.30
2023-02-19T00:38:03.394Z,88.90
2023-02-19T00:40:31.129Z,88.80
2023-02-19T00:43:00.967Z,88.60
2023-02-19T00:45:29.003Z,88.60
2023-02-19T00:47:56.609Z,88.90
2023-02-19T00:50:26.557Z,88.80
2023-02-19T00:53:14.105Z,89.00
2023-02-19T00:55:44.021Z,88.50
2023-02-19T00:58:15.360Z,88.20
2023-02-19T01:00:45.406Z,88.50
2023-02-19T01:03:22.990Z,87.80
2023-02-19T01:06:03.735Z,87.20
2023-02-19T01:08:31.551Z,86.70
2023-02-19T01:11:00.210Z,86.60
2023-02-19T01:13:31.095Z,86.20
2023-02-19T01:15:59.244Z,85.80
2023-02-19T01:18:26.818Z,85.90
2023-02-19T01:20:58.089Z,85.60
2023-02-19T01:23:35.440Z,85.10
2023-02-19T01:26:08.462Z,85.00
2023-02-19T01:28:36.277Z,85.30
2023-02-19T01:31:04.679Z,83.90
2023-02-19T01:33:35.627Z,83.50
2023-02-19T01:36:03.740Z,82.90
2023-02-19T01:38:38.314Z,82.50
2023-02-19T01:41:07.582Z,81.60
2023-02-19T01:43:35.969Z,81.30
2023-02-19T01:46:06.072Z,80.60
2023-02-19T01:48:34.648Z,80.60
2023-02-19T01:51:04.393Z,80.60
2023-02-19T01:53:36.924Z,79.70
2023-02-19T01:56:16.047Z,79.50
2023-02-19T01:58:46.041Z,78.90
2023-02-19T02:01:13.993Z,78.50
2023-02-19T02:03:42.138Z,77.90
2023-02-19T02:06:14.169Z,77.40
2023-02-19T02:08:41.922Z,77.00
2023-02-19T02:11:10.053Z,76.60
2023-02-19T02:13:40.329Z,76.50
2023-02-19T02:16:10.193Z,76.10
2023-02-19T02:18:37.768Z,76.10
2023-02-19T02:21:05.933Z,76.10
2023-02-19T02:23:37.722Z,76.20
2023-02-19T02:26:07.668Z,75.70
2023-02-19T02:28:38.973Z,75.30
2023-02-19T02:31:08.145Z,76.20
2023-02-19T02:33:37.211Z,76.20
2023-02-19T02:36:07.124Z,75.50
2023-02-19T02:38:38.520Z,74.90
2023-02-19T02:41:06.270Z,74.70
2023-02-19T02:43:34.098Z,74.70
2023-02-19T02:46:02.140Z,74.90
2023-02-19T02:48:29.766Z,74.00
2023-02-19T02:50:57.407Z,73.60
2023-02-19T02:53:25.233Z,74.40
2023-02-19T02:55:52.880Z,73.80
2023-02-19T02:58:24.535Z,73.80
2023-02-19T03:00:53.258Z,72.50
2023-02-19T03:03:20.928Z,71.80
2023-02-19T03:05:50.957Z,71.40
2023-02-19T03:08:18.973Z,70.60
2023-02-19T03:10:46.681Z,71.40
2023-02-19T03:13:14.485Z,71.80
2023-02-19T03:15:42.230Z,70.00
2023-02-19T03:18:09.925Z,69.50
2023-02-19T03:20:38.820Z,70.30
2023-02-19T03:23:06.733Z,70.60
2023-02-19T03:25:34.696Z,69.70
2023-02-19T03:28:04.511Z,69.60
2023-02-19T03:30:32.870Z,69.80
2023-02-19T03:33:00.535Z,69.80
2023-02-19T03:35:30.449Z,69.60
2023-02-19T03:37:58.881Z,70.00
2023-02-19T03:40:26.505Z,69.30
2023-02-19T03:42:56.304Z,68.20
2023-02-19T03:45:24.691Z,68.50
2023-02-19T03:47:55.307Z,68.50
2023-02-19T03:50:24.966Z,67.70
2023-02-19T03:52:52.750Z,67.90
2023-02-19T03:55:21.610Z,67.00
2023-02-19T03:57:51.481Z,66.20
2023-02-19T04:00:24.689Z,66.60
2023-02-19T04:03:00.278Z,67.50
2023-02-19T04:05:30.216Z,66.50
2023-02-19T04:07:58.212Z,66.60
2023-02-19T04:10:31.219Z,66.40
2023-02-19T04:13:05.251Z,65.70
2023-02-19T04:15:39.469Z,66.10
2023-02-19T04:18:07.134Z,65.10
2023-02-19T04:20:34.831Z,64.80
2023-02-19T04:23:04.770Z,63.60
2023-02-19T04:25:33.512Z,63.40
2023-02-19T04:28:01.580Z,62.30
2023-02-19T04:30:31.768Z,63.00
2023-02-19T04:32:59.339Z,62.20
2023-02-19T04:35:26.957Z,61.70
2023-02-19T04:37:56.825Z,62.00
2023-02-19T04:40:24.668Z,61.90
2023-02-19T04:42:53.366Z,60.70
2023-02-19T04:45:23.633Z,61.10
2023-02-19T04:47:51.297Z,61.00
2023-02-19T04:50:18.911Z,60.30
2023-02-19T04:52:49.012Z,60.50
2023-02-19T04:55:16.587Z,61.50
2023-02-19T04:57:45.503Z,60.60
2023-02-19T05:00:16.069Z,59.80
2023-02-19T05:02:43.783Z,59.60
2023-02-19T05:05:11.408Z,59.90
2023-02-19T05:07:41.646Z,59.70
2023-02-19T05:10:09.248Z,59.70
2023-02-19T05:12:37.155Z,58.60
2023-02-19T05:15:08.113Z,59.10
2023-02-19T05:17:35.765Z,59.10
2023-02-19T05:20:03.418Z,59.40
2023-02-19T05:22:34.958Z,59.30
2023-02-19T05:25:02.524Z,58.20
2023-02-19T05:27:30.251Z,58.20
2023-02-19T05:30:00.424Z,58.90
2023-02-19T05:32:28.184Z,58.70
2023-02-19T05:34:56.116Z,58.70
2023-02-19T05:37:26.159Z,58.90
2023-02-19T05:39:53.766Z,58.30
2023-02-19T05:42:21.311Z,58.20
2023-02-19T05:44:52.079Z,58.40
2023-02-19T05:47:19.719Z,58.30
2023-02-19T05:49:47.306Z,58.00
2023-02-19T05:52:17.258Z,58.50
2023-02-19T05:54:44.852Z,58.40
2023-02-19T05:57:12.426Z,58.50
2023-02-19T05:59:42.360Z,57.10
2023-02-19T06:02:09.916Z,57.20
2023-02-19T06:04:37.606Z,57.90
2023-02-19T06:07:07.494Z,57.10
2023-02-19T06:09:35.065Z,56.30
2023-02-19T06:12:02.649Z,56.50
2023-02-19T06:14:32.427Z,56.90
2023-02-19T06:16:59.985Z,57.10
2023-02-19T06:19:27.684Z,57.10
2023-02-19T06:21:57.410Z,57.20
2023-02-19T06:24:24.987Z,57.10
2023-02-19T06:26:52.626Z,56.50
2023-02-19T06:29:22.558Z,56.40
2023-02-19T06:31:50.171Z,56.30
2023-02-19T06:34:17.824Z,56.30
2023-02-19T06:36:47.789Z,57.00
2023-02-19T06:39:15.360Z,56.30
2023-02-19T06:41:43.034Z,56.50
2023-02-19T06:44:13.164Z,55.40
2023-02-19T06:46:41.169Z,54.70
2023-02-19T06:49:08.800Z,54.50
2023-02-19T06:51:38.668Z,55.40
2023-02-19T06:54:06.263Z,53.90
2023-02-19T06:56:34.107Z,53.90
2023-02-19T06:59:04.150Z,53.40
2023-02-19T07:01:32.281Z,54.00
2023-02-19T07:03:59.899Z,52.80
2023-02-19T07:06:27.725Z,52.70
2023-02-19T07:08:55.226Z,53.40
2023-02-19T07:11:22.805Z,53.50
2023-02-19T07:13:52.760Z,53.50
2023-02-19T07:16:20.470Z,53.30
2023-02-19T07:18:48.052Z,53.30
2023-02-19T07:21:17.851Z,53.40
2023-02-19T07:23:45.628Z,53.20
2023-02-19T07:26:13.336Z,52.80
2023-02-19T07:28:43.309Z,52.60
2023-02-19T07:31:11.750Z,52.50
2023-02-19T07:33:39.555Z,52.60
2023-02-19T07:36:07.349Z,52.50
2023-02-19T07:38:34.945Z,52.60
2023-02-19T07:41:02.597Z,52.70
2023-02-19T07:43:32.963Z,53.10
2023-02-19T07:46:00.970Z,53.00
2023-02-19T07:48:28.604Z,52.70
2023-02-19T07:50:58.610Z,52.00
2023-02-19T07:53:26.288Z,52.40
2023-02-19T07:55:53.920Z,52.80
2023-02-19T07:58:22.868Z,53.90
2023-02-19T08:00:51.374Z,52.70
2023-02-19T08:03:20.332Z,52.90
2023-02-19T08:05:48.154Z,52.60
2023-02-19T08:08:17.400Z,52.50
2023-02-19T08:10:45.034Z,52.30
2023-02-19T08:13:12.863Z,52.80
2023-02-19T08:15:40.740Z,51.70
2023-02-19T08:18:08.373Z,51.80
2023-02-19T08:20:38.330Z,52.40
2023-02-19T08:23:06.512Z,52.60
2023-02-19T08:25:34.124Z,52.60
2023-02-19T08:28:04.007Z,53.20
2023-02-19T08:30:32.997Z,52.90
2023-02-19T08:33:02.275Z,52.50
2023-02-19T08:35:32.210Z,53.00
2023-02-19T08:37:59.747Z,52.30
2023-02-19T08:40:27.399Z,51.10
2023-02-19T08:42:55.517Z,52.20
2023-02-19T08:45:23.074Z,51.80
2023-02-19T08:47:50.644Z,51.50
2023-02-19T08:50:20.955Z,51.90
2023-02-19T08:52:48.534Z,52.00
2023-02-19T08:55:16.137Z,51.90
2023-02-19T08:57:46.290Z,51.50
2023-02-19T09:00:13.814Z,51.70
2023-02-19T09:02:41.442Z,51.80
2023-02-19T09:05:11.336Z,51.80
2023-02-19T09:07:40.132Z,51.60
2023-02-19T09:10:30.221Z,51.50
2023-02-19T09:12:57.819Z,51.80
2023-02-19T09:15:25.443Z,51.20
2023-02-19T09:17:55.985Z,51.80
2023-02-19T09:20:23.701Z,51.60
2023-02-19T09:22:51.339Z,51.40
2023-02-19T09:25:19.193Z,51.10
2023-02-19T09:27:46.806Z,51.30
2023-02-19T09:30:14.633Z,51.80
2023-02-19T09:32:44.643Z,51.40
2023-02-19T09:35:12.340Z,50.40
2023-02-19T09:37:40.110Z,50.90
2023-02-19T09:40:08.033Z,51.10
2023-02-19T09:42:38.506Z,51.60
2023-02-19T09:45:06.114Z,52.00
2023-02-19T09:47:36.773Z,52.50
2023-02-19T09:50:04.368Z,53.10
2023-02-19T09:52:32.600Z,52.50
2023-02-19T09:55:02.708Z,52.70
2023-02-19T09:57:30.262Z,53.40
2023-02-19T10:00:00.356Z,53.30
2023-02-19T10:02:30.183Z,53.20
2023-02-19T10:04:57.927Z,53.00
2023-02-19T10:07:25.680Z,53.40
2023-02-19T10:09:55.477Z,53.60
2023-02-19T10:12:23.028Z,53.70
2023-02-19T10:14:51.004Z,53.90
2023-02-19T10:17:20.749Z,54.30
2023-02-19T10:19:48.362Z,55.00
2023-02-19T10:22:16.295Z,55.60
2023-02-19T10:24:46.540Z,55.90
2023-02-19T10:27:14.095Z,56.00
2023-02-19T10:29:41.688Z,56.40
2023-02-19T10:32:09.350Z,56.50
2023-02-19T10:34:36.910Z,56.50
2023-02-19T10:37:04.621Z,56.80
2023-02-19T10:39:34.897Z,57.20
2023-02-19T10:42:02.497Z,57.20
2023-02-19T10:44:30.865Z,57.40
2023-02-19T10:47:00.613Z,57.10
2023-02-19T10:49:28.292Z,57.00
2023-02-19T10:51:56.106Z,57.20
2023-02-19T10:54:25.951Z,57.30
2023-02-19T10:56:53.512Z,57.40
2023-02-19T10:59:21.103Z,57.50
2023-02-19T11:01:50.943Z,57.70
2023-02-19T11:04:18.950Z,57.90
2023-02-19T11:06:46.696Z,58.00
2023-02-19T11:09:16.566Z,58.30
2023-02-19T11:11:44.129Z,58.30
2023-02-19T11:14:12.005Z,58.30
2023-02-19T11:16:41.787Z,58.40
2023-02-19T11:19:09.340Z,58.50
2023-02-19T11:21:37.151Z,58.40
2023-02-19T11:24:04.778Z,58.60
2023-02-19T11:26:33.148Z,58.80
2023-02-19T11:29:00.789Z,59.00
2023-02-19T11:31:30.775Z,58.90
2023-02-19T11:33:58.360Z,58.70
2023-02-19T11:36:26.846Z,58.90
2023-02-19T11:38:56.975Z,59.00
2023-02-19T11:41:24.521Z,58.40
2023-02-19T11:43:52.648Z,58.60
2023-02-19T11:46:20.354Z,58.60
2023-02-19T11:48:47.942Z,58.30
2023-02-19T11:51:15.800Z,58.50
2023-02-19T11:53:43.639Z,58.30
2023-02-19T11:56:11.306Z,58.40
2023-02-19T11:58:39.078Z,58.60
2023-02-19T12:01:06.799Z,58.80
2023-02-19T12:03:34.600Z,58.80
2023-02-19T12:06:02.564Z,58.70
2023-02-19T12:08:32.337Z,58.70
2023-02-19T12:10:59.925Z,58.60
2023-02-19T12:13:27.714Z,58.60
2023-02-19T12:15:57.449Z,58.60
2023-02-19T12:18:26.557Z,58.50
2023-02-19T12:20:54.330Z,58.60
2023-02-19T12:23:23.908Z,58.80
2023-02-19T12:25:51.591Z,58.60
2023-02-19T12:28:39.168Z,58.50
2023-02-19T12:31:06.833Z,58.60
2023-02-19T12:33:34.610Z,58.70
2023-02-19T12:36:02.546Z,58.60
2023-02-19T12:38:30.079Z,58.30
2023-02-19T12:40:57.700Z,58.60
2023-02-19T12:43:27.019Z,58.50
2023-02-19T12:45:54.653Z,58.60
2023-02-19T12:48:22.297Z,58.80
2023-02-19T12:50:52.286Z,59.00
2023-02-19T12:53:20.334Z,59.10
2023-02-19T12:55:48.156Z,58.90
2023-02-19T12:58:18.383Z,59.20
2023-02-19T13:00:46.252Z,59.50
2023-02-19T13:03:22.318Z,59.60
2023-02-19T13:05:55.099Z,59.60
2023-02-19T13:08:24.126Z,59.50
2023-02-19T13:11:11.928Z,59.70
2023-02-19T13:13:39.811Z,59.60
2023-02-19T13:16:07.376Z,59.70
2023-02-19T13:18:34.942Z,59.90
2023-02-19T13:21:02.768Z,59.90
2023-02-19T13:23:30.525Z,59.90
2023-02-19T13:25:58.110Z,59.80
2023-02-19T13:28:25.889Z,59.80
2023-02-19T13:30:53.507Z,59.70
2023-02-19T13:33:21.148Z,59.80
2023-02-19T13:35:51.191Z,59.90
2023-02-19T13:38:18.765Z,59.90
2023-02-19T13:40:46.533Z,60.30
2023-02-19T13:43:18.609Z,59.90
2023-02-19T13:45:46.380Z,60.00
2023-02-19T13:48:14.185Z,59.60
2023-02-19T13:50:42.622Z,59.80
2023-02-19T13:53:10.171Z,59.50
2023-02-19T13:55:38.154Z,59.60
2023-02-19T13:58:06.734Z,60.10
2023-02-19T14:00:34.380Z,60.10
2023-02-19T14:03:01.946Z,60.10
2023-02-19T14:05:30.919Z,60.00
2023-02-19T14:07:58.517Z,60.00
2023-02-19T14:10:26.117Z,59.90
2023-02-19T14:12:56.294Z,60.40
2023-02-19T14:15:23.846Z,60.00
2023-02-19T14:17:51.426Z,60.10
2023-02-19T14:20:21.401Z,60.20
2023-02-19T14:22:49.130Z,60.30
2023-02-19T14:25:16.699Z,60.00
2023-02-19T14:27:44.689Z,60.20
2023-02-19T14:30:12.272Z,61.00
2023-02-19T14:32:39.911Z,60.00
2023-02-19T14:35:09.849Z,60.10
2023-02-19T14:37:37.502Z,60.40
2023-02-19T14:40:05.094Z,60.00
2023-02-19T14:42:33.115Z,60.20
2023-02-19T14:45:00.672Z,59.90
2023-02-19T14:47:28.157Z,59.70
2023-02-19T14:49:58.375Z,59.90
2023-02-19T14:52:25.972Z,59.80
2023-02-19T14:54:53.575Z,59.60
2023-02-19T14:57:21.287Z,59.80
2023-02-19T14:59:48.900Z,60.50
2023-02-19T15:02:16.455Z,60.00
2023-02-19T15:04:44.491Z,59.80
2023-02-19T15:07:12.150Z,60.00
2023-02-19T15:09:39.729Z,59.30
2023-02-19T15:12:09.588Z,59.30
2023-02-19T15:14:37.139Z,59.30
2023-02-19T15:17:04.733Z,58.90
2023-02-19T15:19:34.855Z,58.90
2023-02-19T15:22:02.431Z,58.70
2023-02-19T15:24:30.244Z,58.90
2023-02-19T15:27:00.393Z,59.00
2023-02-19T15:29:28.185Z,59.20
2023-02-19T15:31:55.890Z,59.00
2023-02-19T15:34:25.756Z,59.10
2023-02-19T15:36:53.378Z,59.20
2023-02-19T15:39:20.972Z,59.40
2023-02-19T15:41:51.533Z,59.30
2023-02-19T15:44:19.303Z,59.00
2023-02-19T15:46:47.017Z,59.50
2023-02-19T15:49:16.795Z,59.50
2023-02-19T15:51:44.487Z,59.10
2023-02-19T15:54:12.142Z,59.30
2023-02-19T15:56:40.488Z,59.60
2023-02-19T15:59:08.127Z,59.40
2023-02-19T16:01:35.838Z,59.30
2023-02-19T16:04:03.752Z,59.40
2023-02-19T16:06:31.623Z,59.50
2023-02-19T16:08:59.179Z,59.60
2023-02-19T16:11:26.930Z,59.90
2023-02-19T16:13:54.821Z,59.90
2023-02-19T16:16:22.444Z,60.00
2023-02-19T16:18:52.388Z,60.00
2023-02-19T16:21:20.102Z,60.30
2023-02-19T16:23:47.675Z,60.30
2023-02-19T16:26:17.683Z,60.10
2023-02-19T16:28:45.304Z,60.40
2023-02-19T16:31:13.228Z,60.30
2023-02-19T16:33:43.535Z,60.70
2023-02-19T16:36:11.842Z,60.60
2023-02-19T16:38:40.514Z,61.60
2023-02-19T16:41:10.671Z,60.90
2023-02-19T16:43:38.536Z,60.90
2023-02-19T16:46:06.340Z,61.00
2023-02-19T16:48:36.219Z,61.40
2023-02-19T16:51:03.924Z,61.50
2023-02-19T16:53:31.749Z,61.60
2023-02-19T16:56:01.616Z,61.60
2023-02-19T16:58:29.565Z,61.50
2023-02-19T17:00:57.328Z,61.70
2023-02-19T17:03:27.252Z,61.70
2023-02-19T17:05:54.813Z,61.80
2023-02-19T17:08:22.392Z,62.00
2023-02-19T17:10:53.031Z,62.10
2023-02-19T17:13:21.818Z,62.20
2023-02-19T17:15:49.406Z,62.30
2023-02-19T17:18:19.488Z,62.30
2023-02-19T17:20:47.277Z,62.40
2023-02-19T17:23:14.809Z,62.60
2023-02-19T17:25:44.837Z,62.70
2023-02-19T17:28:12.453Z,63.10
2023-02-19T17:30:40.485Z,63.40
2023-02-19T17:33:08.348Z,63.20
2023-02-19T17:35:35.916Z,63.10
2023-02-19T17:38:03.567Z,63.10
2023-02-19T17:40:33.574Z,63.50
2023-02-19T17:43:01.522Z,63.40
2023-02-19T17:45:29.104Z,63.80
2023-02-19T17:47:59.284Z,63.90
2023-02-19T17:50:27.024Z,64.00
2023-02-19T17:52:54.546Z,64.50
2023-02-19T17:55:27.901Z,64.60
2023-02-19T17:57:55.526Z,65.00
2023-02-19T18:00:23.094Z,65.20
2023-02-19T18:02:53.442Z,65.30
2023-02-19T18:05:22.008Z,65.30
2023-02-19T18:07:51.096Z,65.60
2023-02-19T18:10:19.516Z,66.20
2023-02-19T18:12:48.932Z,66.10
2023-02-19T18:15:19.157Z,66.40
2023-02-19T18:17:48.527Z,66.90
2023-02-19T18:20:16.401Z,66.80
2023-02-19T18:22:44.634Z,67.30
2023-02-19T18:25:14.547Z,67.80
2023-02-19T18:27:42.141Z,67.60
2023-02-19T18:30:10.605Z,68.10
2023-02-19T18:32:40.347Z,68.30
2023-02-19T18:35:07.948Z,68.50
2023-02-19T18:37:35.578Z,69.20
2023-02-19T18:40:05.336Z,69.70
2023-02-19T18:42:32.878Z,70.70
2023-02-19T18:45:00.988Z,70.80
2023-02-19T18:47:30.704Z,70.80
2023-02-19T18:49:58.335Z,71.50
2023-02-19T18:52:26.205Z,71.60
2023-02-19T18:54:55.960Z,71.80
2023-02-19T18:57:26.880Z,71.90
2023-02-19T18:59:54.574Z,72.70
2023-02-19T19:02:24.291Z,73.00
2023-02-19T19:04:52.192Z,72.20
2023-02-19T19:07:19.747Z,72.10
2023-02-19T19:09:50.104Z,71.90
2023-02-19T19:12:19.277Z,71.30
2023-02-19T19:14:46.843Z,71.20
2023-02-19T19:17:16.589Z,70.70
2023-02-19T19:19:44.260Z,69.90
2023-02-19T19:22:11.815Z,70.40
2023-02-19T19:24:41.519Z,69.90
2023-02-19T19:27:09.114Z,70.10
2023-02-19T19:29:36.883Z,70.00
2023-02-19T19:32:08.385Z,69.70
2023-02-19T19:34:36.598Z,69.50
2023-02-19T19:37:04.295Z,69.50
2023-02-19T19:39:34.028Z,69.50
2023-02-19T19:42:01.967Z,69.70
2023-02-19T19:44:29.534Z,69.70
2023-02-19T19:46:59.278Z,69.80
2023-02-19T19:49:26.860Z,69.60
2023-02-19T19:51:54.913Z,69.70
2023-02-19T19:54:24.814Z,70.00
2023-02-19T19:56:52.696Z,70.10
2023-02-19T19:59:20.243Z,70.30
2023-02-19T20:01:50.047Z,70.30
2023-02-19T20:04:18.729Z,70.40
2023-02-19T20:06:46.728Z,70.30
2023-02-19T20:09:16.690Z,69.70
2023-02-19T20:11:44.450Z,69.20
2023-02-19T20:14:12.015Z,69.20
2023-02-19T20:16:43.860Z,69.50
2023-02-19T20:19:12.447Z,69.80
2023-02-19T20:21:41.341Z,69.50
2023-02-19T20:24:11.502Z,69.30
2023-02-19T20:26:39.240Z,69.90
2023-02-19T20:29:06.819Z,70.30
2023-02-19T20:31:36.612Z,70.10
2023-02-19T20:34:04.803Z,70.40
2023-02-19T20:36:35.249Z,70.70
2023-02-19T20:39:04.975Z,70.70
2023-02-19T20:41:32.777Z,70.40
2023-02-19T20:44:00.461Z,70.50
2023-02-19T20:46:30.182Z,70.30
2023-02-19T20:48:58.012Z,70.30
2023-02-19T20:51:25.562Z,70.70
2023-02-19T20:53:55.282Z,70.60
2023-02-19T20:56:23.151Z,70.50
2023-02-19T20:58:50.684Z,70.50
2023-02-19T21:01:20.541Z,70.50
2023-02-19T21:03:48.303Z,70.70
2023-02-19T21:06:36.249Z,71.10
2023-02-19T21:09:24.894Z,71.10
2023-02-19T21:12:14.780Z,71.20
2023-02-19T21:15:02.718Z,70.90
2023-02-19T21:17:52.633Z,71.20
2023-02-19T21:20:40.544Z,71.20
2023-02-19T21:23:30.627Z,71.30
2023-02-19T21:26:18.465Z,71.70
2023-02-19T21:29:08.420Z,72.10
2023-02-19T21:31:56.363Z,72.00
2023-02-19T21:34:46.498Z,71.90
2023-02-19T21:37:34.513Z,72.30
2023-02-19T21:40:24.411Z,72.60
2023-02-19T21:43:12.434Z,72.70
2023-02-19T21:46:02.407Z,72.80
2023-02-19T21:48:50.427Z,72.80
2023-02-19T21:51:40.319Z,72.70
2023-02-19T21:54:28.395Z,72.90
2023-02-19T21:57:18.335Z,73.00
2023-02-19T22:00:06.444Z,72.90
2023-02-19T22:02:56.384Z,74.10
2023-02-19T22:05:44.389Z,74.30
2023-02-19T22:08:34.462Z,74.00
2023-02-19T22:11:22.467Z,73.90
2023-02-19T22:14:12.397Z,73.90
2023-02-19T22:17:00.247Z,74.20
2023-02-19T22:19:50.140Z,74.00
2023-02-19T22:22:38.119Z,74.10
2023-02-19T22:25:28.028Z,74.30
2023-02-19T22:28:15.975Z,75.10
2023-02-19T22:31:04.816Z,75.20
2023-02-19T22:33:52.779Z,75.60
2023-02-19T22:36:38.434Z,75.90
2023-02-19T22:39:26.109Z,75.70
2023-02-19T22:41:55.796Z,75.70
2023-02-19T22:44:24.290Z,76.20
2023-02-19T22:46:54.419Z,76.40
2023-02-19T22:49:27.647Z,76.90
2023-02-19T22:52:02.060Z,77.20
2023-02-19T22:54:34.604Z,77.20
2023-02-19T22:57:03.580Z,77.70
2023-02-19T22:59:33.348Z,77.90
2023-02-19T23:02:01.626Z,78.10
2023-02-19T23:04:30.339Z,78.50
2023-02-19T23:06:58.689Z,78.50
2023-02-19T23:09:26.180Z,79.10
2023-02-19T23:11:54.790Z,79.50
2023-02-19T23:14:22.416Z,79.70
2023-02-19T23:16:50.062Z,80.20
2023-02-19T23:19:19.814Z,80.30
2023-02-19T23:21:47.470Z,80.70
2023-02-19T23:24:15.199Z,80.50
2023-02-19T23:26:45.200Z,80.70
2023-02-19T23:29:12.775Z,80.30
2023-02-19T23:31:40.463Z,80.20
2023-02-19T23:34:08.229Z,80.50
2023-02-19T23:36:35.791Z,81.60
2023-02-19T23:39:06.100Z,82.20
2023-02-19T23:41:33.823Z,83.30
2023-02-19T23:44:02.195Z,82.20
2023-02-19T23:46:29.819Z,82.20
2023-02-19T23:48:58.725Z,81.90
2023-02-19T23:51:26.428Z,81.70
2023-02-19T23:53:54.006Z,81.70
2023-02-19T23:56:22.947Z,81.90
2023-02-19T23:58:50.363Z,82.10
